sensor_id;sensor_type;location;lat;lon;timestamp;P1;durP1;ratioP1;P2;durP2;ratioP2
11608;SDS011;5860;52.018;8.536;2024-03-06T00:00:13;48.30;;;31.50;;
11608;SDS011;5860;52.018;8.536;2024-03-06T00:02:41;45.33;;;30.37;;
11608;SDS011;5860;52.018;8.536;2024-03-06T00:05:08;48.50;;;31.57;;
11608;SDS011;5860;52.018;8.536;2024-03-06T00:07:35;49.70;;;31.67;;
11608;SDS011;5860;52.018;8.536;2024-03-06T00:10:02;44.50;;;30.03;;
11608;SDS011;5860;52.018;8.536;2024-03-06T00:12:31;44.23;;;29.70;;
11608;SDS011;5860;52.018;8.536;2024-03-06T00:14:58;42.63;;;29.50;;
11608;SDS011;5860;52.018;8.536;2024-03-06T00:17:25;45.57;;;30.93;;
11608;SDS011;5860;52.018;8.536;2024-03-06T00:19:53;42.93;;;30.07;;
11608;SDS011;5860;52.018;8.536;2024-03-06T00:22:20;47.57;;;29.93;;
11608;SDS011;5860;52.018;8.536;2024-03-06T00:24:49;43.07;;;28.27;;
11608;SDS011;5860;52.018;8.536;2024-03-06T00:27:17;42.93;;;28.97;;
11608;SDS011;5860;52.018;8.536;2024-03-06T00:29:45;41.73;;;29.90;;
11608;SDS011;5860;52.018;8.536;2024-03-06T00:32:12;42.13;;;29.63;;
11608;SDS011;5860;52.018;8.536;2024-03-06T00:34:39;44.40;;;29.50;;
11608;SDS011;5860;52.018;8.536;2024-03-06T00:37:06;42.90;;;29.10;;
11608;SDS011;5860;52.018;8.536;2024-03-06T00:39:33;44.33;;;29.10;;
11608;SDS011;5860;52.018;8.536;2024-03-06T00:42:00;42.80;;;28.20;;
11608;SDS011;5860;52.018;8.536;2024-03-06T00:44:27;45.43;;;30.20;;
11608;SDS011;5860;52.018;8.536;2024-03-06T00:46:55;46.67;;;30.53;;
11608;SDS011;5860;52.018;8.536;2024-03-06T00:49:22;46.73;;;30.77;;
11608;SDS011;5860;52.018;8.536;2024-03-06T00:51:48;47.77;;;29.93;;
11608;SDS011;5860;52.018;8.536;2024-03-06T00:54:15;49.23;;;29.87;;
11608;SDS011;5860;52.018;8.536;2024-03-06T00:56:43;48.17;;;31.00;;
11608;SDS011;5860;52.018;8.536;2024-03-06T00:59:10;51.17;;;31.60;;
11608;SDS011;5860;52.018;8.536;2024-03-06T01:01:38;48.90;;;30.00;;
11608;SDS011;5860;52.018;8.536;2024-03-06T01:04:05;48.47;;;31.03;;
11608;SDS011;5860;52.018;8.536;2024-03-06T01:06:32;51.43;;;31.83;;
11608;SDS011;5860;52.018;8.536;2024-03-06T01:08:59;53.83;;;32.97;;
11608;SDS011;5860;52.018;8.536;2024-03-06T01:11:26;51.90;;;32.37;;
11608;SDS011;5860;52.018;8.536;2024-03-06T01:13:53;52.67;;;32.87;;
11608;SDS011;5860;52.018;8.536;2024-03-06T01:16:20;61.00;;;32.23;;
11608;SDS011;5860;52.018;8.536;2024-03-06T01:18:47;56.60;;;32.90;;
11608;SDS011;5860;52.018;8.536;2024-03-06T01:21:15;59.13;;;33.30;;
11608;SDS011;5860;52.018;8.536;2024-03-06T01:23:42;62.37;;;33.93;;
11608;SDS011;5860;52.018;8.536;2024-03-06T01:26:09;52.83;;;31.67;;
11608;SDS011;5860;52.018;8.536;2024-03-06T01:28:37;54.03;;;32.47;;
11608;SDS011;5860;52.018;8.536;2024-03-06T01:31:05;53.93;;;31.67;;
11608;SDS011;5860;52.018;8.536;2024-03-06T01:33:32;51.00;;;31.17;;
11608;SDS011;5860;52.018;8.536;2024-03-06T01:35:59;51.97;;;32.10;;
11608;SDS011;5860;52.018;8.536;2024-03-06T01:38:26;50.33;;;30.50;;
11608;SDS011;5860;52.018;8.536;2024-03-06T01:40:53;48.77;;;31.47;;
11608;SDS011;5860;52.018;8.536;2024-03-06T01:43:21;52.70;;;32.30;;
11608;SDS011;5860;52.018;8.536;2024-03-06T01:45:49;53.07;;;32.60;;
11608;SDS011;5860;52.018;8.536;2024-03-06T01:48:20;50.43;;;30.73;;
11608;SDS011;5860;52.018;8.536;2024-03-06T01:50:49;53.73;;;32.57;;
11608;SDS011;5860;52.018;8.536;2024-03-06T01:53:16;47.97;;;29.43;;
11608;SDS011;5860;52.018;8.536;2024-03-06T01:55:44;49.60;;;31.30;;
11608;SDS011;5860;52.018;8.536;2024-03-06T01:58:12;51.47;;;31.63;;
11608;SDS011;5860;52.018;8.536;2024-03-06T02:00:39;47.57;;;29.67;;
11608;SDS011;5860;52.018;8.536;2024-03-06T02:03:06;53.07;;;30.73;;
11608;SDS011;5860;52.018;8.536;2024-03-06T02:05:33;45.63;;;29.73;;
11608;SDS011;5860;52.018;8.536;2024-03-06T02:08:01;49.73;;;30.53;;
11608;SDS011;5860;52.018;8.536;2024-03-06T02:10:29;55.80;;;31.20;;
11608;SDS011;5860;52.018;8.536;2024-03-06T02:12:56;46.23;;;29.80;;
11608;SDS011;5860;52.018;8.536;2024-03-06T02:15:24;53.00;;;31.30;;
11608;SDS011;5860;52.018;8.536;2024-03-06T02:17:51;51.23;;;31.30;;
11608;SDS011;5860;52.018;8.536;2024-03-06T02:20:25;49.93;;;30.50;;
11608;SDS011;5860;52.018;8.536;2024-03-06T02:22:52;46.50;;;29.43;;
11608;SDS011;5860;52.018;8.536;2024-03-06T02:25:19;53.67;;;30.73;;
11608;SDS011;5860;52.018;8.536;2024-03-06T02:27:46;47.13;;;30.20;;
11608;SDS011;5860;52.018;8.536;2024-03-06T02:30:14;57.73;;;31.60;;
11608;SDS011;5860;52.018;8.536;2024-03-06T02:32:45;54.83;;;31.70;;
11608;SDS011;5860;52.018;8.536;2024-03-06T02:35:12;51.87;;;31.13;;
11608;SDS011;5860;52.018;8.536;2024-03-06T02:37:43;53.27;;;33.57;;
11608;SDS011;5860;52.018;8.536;2024-03-06T02:40:11;57.60;;;33.63;;
11608;SDS011;5860;52.018;8.536;2024-03-06T02:42:38;57.03;;;33.53;;
11608;SDS011;5860;52.018;8.536;2024-03-06T02:45:06;55.60;;;32.63;;
11608;SDS011;5860;52.018;8.536;2024-03-06T02:47:36;53.83;;;32.77;;
11608;SDS011;5860;52.018;8.536;2024-03-06T02:50:03;49.30;;;30.97;;
11608;SDS011;5860;52.018;8.536;2024-03-06T02:52:31;48.70;;;31.87;;
11608;SDS011;5860;52.018;8.536;2024-03-06T02:54:58;57.37;;;33.97;;
11608;SDS011;5860;52.018;8.536;2024-03-06T02:57:26;56.23;;;32.13;;
11608;SDS011;5860;52.018;8.536;2024-03-06T02:59:57;57.93;;;33.10;;
11608;SDS011;5860;52.018;8.536;2024-03-06T03:02:25;56.10;;;33.90;;
11608;SDS011;5860;52.018;8.536;2024-03-06T03:04:52;58.23;;;34.80;;
11608;SDS011;5860;52.018;8.536;2024-03-06T03:07:19;63.23;;;35.20;;
11608;SDS011;5860;52.018;8.536;2024-03-06T03:09:47;63.17;;;35.27;;
11608;SDS011;5860;52.018;8.536;2024-03-06T03:12:14;66.53;;;36.30;;
11608;SDS011;5860;52.018;8.536;2024-03-06T03:14:41;61.07;;;35.67;;
11608;SDS011;5860;52.018;8.536;2024-03-06T03:17:08;61.20;;;35.70;;
11608;SDS011;5860;52.018;8.536;2024-03-06T03:19:35;66.33;;;34.70;;
11608;SDS011;5860;52.018;8.536;2024-03-06T03:22:03;63.47;;;35.63;;
11608;SDS011;5860;52.018;8.536;2024-03-06T03:24:30;65.07;;;36.50;;
11608;SDS011;5860;52.018;8.536;2024-03-06T03:27:00;63.23;;;36.23;;
11608;SDS011;5860;52.018;8.536;2024-03-06T03:29:27;74.77;;;36.97;;
11608;SDS011;5860;52.018;8.536;2024-03-06T03:31:54;66.60;;;36.40;;
11608;SDS011;5860;52.018;8.536;2024-03-06T03:34:22;60.70;;;35.33;;
11608;SDS011;5860;52.018;8.536;2024-03-06T03:36:49;70.10;;;37.37;;
11608;SDS011;5860;52.018;8.536;2024-03-06T03:39:16;61.63;;;35.93;;
11608;SDS011;5860;52.018;8.536;2024-03-06T03:41:47;57.93;;;34.83;;
11608;SDS011;5860;52.018;8.536;2024-03-06T03:44:15;67.47;;;35.67;;
11608;SDS011;5860;52.018;8.536;2024-03-06T03:46:43;57.70;;;34.17;;
11608;SDS011;5860;52.018;8.536;2024-03-06T03:49:10;62.73;;;35.50;;
11608;SDS011;5860;52.018;8.536;2024-03-06T03:51:38;58.20;;;33.90;;
11608;SDS011;5860;52.018;8.536;2024-03-06T03:54:05;55.93;;;33.23;;
11608;SDS011;5860;52.018;8.536;2024-03-06T03:56:32;54.33;;;32.30;;
11608;SDS011;5860;52.018;8.536;2024-03-06T03:59:01;56.87;;;33.50;;
11608;SDS011;5860;52.018;8.536;2024-03-06T04:01:29;58.97;;;35.07;;
11608;SDS011;5860;52.018;8.536;2024-03-06T04:03:56;57.00;;;34.37;;
11608;SDS011;5860;52.018;8.536;2024-03-06T04:06:23;55.17;;;34.07;;
11608;SDS011;5860;52.018;8.536;2024-03-06T04:08:50;59.23;;;34.97;;
11608;SDS011;5860;52.018;8.536;2024-03-06T04:11:17;60.27;;;36.10;;
11608;SDS011;5860;52.018;8.536;2024-03-06T04:13:44;61.50;;;37.07;;
11608;SDS011;5860;52.018;8.536;2024-03-06T04:16:15;62.93;;;37.63;;
11608;SDS011;5860;52.018;8.536;2024-03-06T04:18:44;65.17;;;37.67;;
11608;SDS011;5860;52.018;8.536;2024-03-06T04:21:14;69.73;;;36.93;;
11608;SDS011;5860;52.018;8.536;2024-03-06T04:23:42;68.13;;;38.70;;
11608;SDS011;5860;52.018;8.536;2024-03-06T04:26:10;67.93;;;37.67;;
11608;SDS011;5860;52.018;8.536;2024-03-06T04:28:37;66.00;;;38.40;;
11608;SDS011;5860;52.018;8.536;2024-03-06T04:31:04;70.90;;;38.90;;
11608;SDS011;5860;52.018;8.536;2024-03-06T04:33:31;64.83;;;38.50;;
11608;SDS011;5860;52.018;8.536;2024-03-06T04:36:00;66.87;;;38.90;;
11608;SDS011;5860;52.018;8.536;2024-03-06T04:38:32;72.63;;;38.20;;
11608;SDS011;5860;52.018;8.536;2024-03-06T04:40:59;69.13;;;39.87;;
11608;SDS011;5860;52.018;8.536;2024-03-06T04:43:25;74.47;;;40.43;;
11608;SDS011;5860;52.018;8.536;2024-03-06T04:45:52;71.07;;;40.67;;
11608;SDS011;5860;52.018;8.536;2024-03-06T04:48:20;72.53;;;40.47;;
11608;SDS011;5860;52.018;8.536;2024-03-06T04:50:47;77.10;;;41.73;;
11608;SDS011;5860;52.018;8.536;2024-03-06T04:53:14;77.07;;;41.07;;
11608;SDS011;5860;52.018;8.536;2024-03-06T04:55:41;80.67;;;40.27;;
11608;SDS011;5860;52.018;8.536;2024-03-06T04:58:08;72.80;;;39.60;;
11608;SDS011;5860;52.018;8.536;2024-03-06T05:00:35;78.83;;;41.50;;
11608;SDS011;5860;52.018;8.536;2024-03-06T05:03:01;71.90;;;40.93;;
11608;SDS011;5860;52.018;8.536;2024-03-06T05:05:46;72.90;;;40.67;;
11608;SDS011;5860;52.018;8.536;2024-03-06T05:08:30;75.10;;;40.57;;
11608;SDS011;5860;52.018;8.536;2024-03-06T05:11:15;73.07;;;39.00;;
11608;SDS011;5860;52.018;8.536;2024-03-06T05:14:00;76.30;;;40.50;;
11608;SDS011;5860;52.018;8.536;2024-03-06T05:16:44;72.00;;;39.67;;
11608;SDS011;5860;52.018;8.536;2024-03-06T05:19:29;72.77;;;39.87;;
11608;SDS011;5860;52.018;8.536;2024-03-06T05:22:16;70.00;;;39.43;;
11608;SDS011;5860;52.018;8.536;2024-03-06T05:25:01;71.13;;;39.67;;
11608;SDS011;5860;52.018;8.536;2024-03-06T05:27:45;75.60;;;40.90;;
11608;SDS011;5860;52.018;8.536;2024-03-06T05:30:29;76.23;;;39.57;;
11608;SDS011;5860;52.018;8.536;2024-03-06T05:33:13;74.30;;;38.77;;
11608;SDS011;5860;52.018;8.536;2024-03-06T05:35:58;81.53;;;40.10;;
11608;SDS011;5860;52.018;8.536;2024-03-06T05:38:43;79.73;;;40.93;;
11608;SDS011;5860;52.018;8.536;2024-03-06T05:41:28;76.10;;;39.40;;
11608;SDS011;5860;52.018;8.536;2024-03-06T05:44:12;77.17;;;40.03;;
11608;SDS011;5860;52.018;8.536;2024-03-06T05:47:01;77.23;;;41.33;;
11608;SDS011;5860;52.018;8.536;2024-03-06T05:49:46;85.37;;;42.03;;
11608;SDS011;5860;52.018;8.536;2024-03-06T05:52:31;85.30;;;41.13;;
11608;SDS011;5860;52.018;8.536;2024-03-06T05:55:16;84.63;;;42.40;;
11608;SDS011;5860;52.018;8.536;2024-03-06T05:58:01;90.53;;;41.57;;
11608;SDS011;5860;52.018;8.536;2024-03-06T06:00:33;86.47;;;42.53;;
11608;SDS011;5860;52.018;8.536;2024-03-06T06:03:00;83.40;;;41.60;;
11608;SDS011;5860;52.018;8.536;2024-03-06T06:05:27;94.17;;;44.43;;
11608;SDS011;5860;52.018;8.536;2024-03-06T06:07:54;96.67;;;44.47;;
11608;SDS011;5860;52.018;8.536;2024-03-06T06:10:21;94.57;;;45.07;;
11608;SDS011;5860;52.018;8.536;2024-03-06T06:12:48;88.73;;;44.60;;
11608;SDS011;5860;52.018;8.536;2024-03-06T06:15:15;99.97;;;45.03;;
11608;SDS011;5860;52.018;8.536;2024-03-06T06:17:43;98.97;;;45.37;;
11608;SDS011;5860;52.018;8.536;2024-03-06T06:20:11;104.47;;;43.27;;
11608;SDS011;5860;52.018;8.536;2024-03-06T06:22:42;93.67;;;43.57;;
11608;SDS011;5860;52.018;8.536;2024-03-06T06:25:09;104.07;;;44.47;;
11608;SDS011;5860;52.018;8.536;2024-03-06T06:27:37;95.27;;;46.47;;
11608;SDS011;5860;52.018;8.536;2024-03-06T06:30:05;93.57;;;45.10;;
11608;SDS011;5860;52.018;8.536;2024-03-06T06:32:35;89.83;;;43.47;;
11608;SDS011;5860;52.018;8.536;2024-03-06T06:35:02;101.80;;;44.67;;
11608;SDS011;5860;52.018;8.536;2024-03-06T06:37:31;99.90;;;46.57;;
11608;SDS011;5860;52.018;8.536;2024-03-06T06:39:58;108.63;;;46.63;;
11608;SDS011;5860;52.018;8.536;2024-03-06T06:42:25;101.63;;;45.67;;
11608;SDS011;5860;52.018;8.536;2024-03-06T06:44:52;106.70;;;44.87;;
11608;SDS011;5860;52.018;8.536;2024-03-06T06:47:19;92.57;;;45.90;;
11608;SDS011;5860;52.018;8.536;2024-03-06T06:49:46;101.43;;;45.87;;
11608;SDS011;5860;52.018;8.536;2024-03-06T06:52:13;94.67;;;44.33;;
11608;SDS011;5860;52.018;8.536;2024-03-06T06:54:40;95.33;;;43.50;;
11608;SDS011;5860;52.018;8.536;2024-03-06T06:57:07;98.47;;;45.57;;
11608;SDS011;5860;52.018;8.536;2024-03-06T06:59:34;105.20;;;45.63;;
11608;SDS011;5860;52.018;8.536;2024-03-06T07:02:02;99.90;;;46.07;;
11608;SDS011;5860;52.018;8.536;2024-03-06T07:04:29;98.00;;;44.63;;
11608;SDS011;5860;52.018;8.536;2024-03-06T07:06:56;93.83;;;43.53;;
11608;SDS011;5860;52.018;8.536;2024-03-06T07:09:23;89.07;;;43.37;;
11608;SDS011;5860;52.018;8.536;2024-03-06T07:11:51;88.43;;;43.83;;
11608;SDS011;5860;52.018;8.536;2024-03-06T07:14:18;79.00;;;41.37;;
11608;SDS011;5860;52.018;8.536;2024-03-06T07:16:45;87.00;;;41.47;;
11608;SDS011;5860;52.018;8.536;2024-03-06T07:19:12;81.60;;;40.87;;
11608;SDS011;5860;52.018;8.536;2024-03-06T07:21:39;83.27;;;42.27;;
11608;SDS011;5860;52.018;8.536;2024-03-06T07:24:06;90.87;;;43.57;;
11608;SDS011;5860;52.018;8.536;2024-03-06T07:26:34;85.37;;;42.90;;
11608;SDS011;5860;52.018;8.536;2024-03-06T07:29:01;81.93;;;42.77;;
11608;SDS011;5860;52.018;8.536;2024-03-06T07:31:29;81.83;;;42.93;;
11608;SDS011;5860;52.018;8.536;2024-03-06T07:33:56;85.53;;;43.20;;
11608;SDS011;5860;52.018;8.536;2024-03-06T07:36:22;97.70;;;46.80;;
11608;SDS011;5860;52.018;8.536;2024-03-06T07:38:49;97.57;;;45.80;;
11608;SDS011;5860;52.018;8.536;2024-03-06T07:41:16;90.97;;;48.10;;
11608;SDS011;5860;52.018;8.536;2024-03-06T07:43:43;95.77;;;46.17;;
11608;SDS011;5860;52.018;8.536;2024-03-06T07:46:10;87.80;;;47.23;;
11608;SDS011;5860;52.018;8.536;2024-03-06T07:48:41;104.77;;;47.73;;
11608;SDS011;5860;52.018;8.536;2024-03-06T07:51:09;90.80;;;46.83;;
11608;SDS011;5860;52.018;8.536;2024-03-06T07:53:36;99.83;;;47.67;;
11608;SDS011;5860;52.018;8.536;2024-03-06T07:56:03;99.43;;;47.40;;
11608;SDS011;5860;52.018;8.536;2024-03-06T07:58:30;115.40;;;49.30;;
11608;SDS011;5860;52.018;8.536;2024-03-06T08:00:57;101.30;;;48.37;;
11608;SDS011;5860;52.018;8.536;2024-03-06T08:03:25;109.40;;;48.90;;
11608;SDS011;5860;52.018;8.536;2024-03-06T08:05:52;106.73;;;47.33;;
11608;SDS011;5860;52.018;8.536;2024-03-06T08:08:20;101.87;;;48.60;;
11608;SDS011;5860;52.018;8.536;2024-03-06T08:10:47;100.87;;;48.23;;
11608;SDS011;5860;52.018;8.536;2024-03-06T08:13:15;97.73;;;48.37;;
11608;SDS011;5860;52.018;8.536;2024-03-06T08:15:42;109.43;;;49.17;;
11608;SDS011;5860;52.018;8.536;2024-03-06T08:18:11;104.53;;;47.63;;
11608;SDS011;5860;52.018;8.536;2024-03-06T08:20:39;88.80;;;48.07;;
11608;SDS011;5860;52.018;8.536;2024-03-06T08:23:07;97.67;;;48.47;;
11608;SDS011;5860;52.018;8.536;2024-03-06T08:25:39;96.23;;;46.37;;
11608;SDS011;5860;52.018;8.536;2024-03-06T08:28:06;90.90;;;47.37;;
11608;SDS011;5860;52.018;8.536;2024-03-06T08:30:33;100.50;;;46.53;;
11608;SDS011;5860;52.018;8.536;2024-03-06T08:33:00;93.27;;;48.80;;
11608;SDS011;5860;52.018;8.536;2024-03-06T08:35:27;100.80;;;46.43;;
11608;SDS011;5860;52.018;8.536;2024-03-06T08:37:55;101.63;;;47.13;;
11608;SDS011;5860;52.018;8.536;2024-03-06T08:40:22;98.93;;;49.37;;
11608;SDS011;5860;52.018;8.536;2024-03-06T08:42:50;101.73;;;48.57;;
11608;SDS011;5860;52.018;8.536;2024-03-06T08:45:17;103.17;;;46.57;;
11608;SDS011;5860;52.018;8.536;2024-03-06T08:47:44;100.63;;;48.17;;
11608;SDS011;5860;52.018;8.536;2024-03-06T08:50:12;102.13;;;47.57;;
11608;SDS011;5860;52.018;8.536;2024-03-06T08:52:40;95.13;;;46.90;;
11608;SDS011;5860;52.018;8.536;2024-03-06T08:55:08;104.73;;;48.07;;
11608;SDS011;5860;52.018;8.536;2024-03-06T08:57:36;105.73;;;48.07;;
11608;SDS011;5860;52.018;8.536;2024-03-06T09:00:04;104.37;;;47.97;;
11608;SDS011;5860;52.018;8.536;2024-03-06T09:02:37;104.73;;;49.77;;
11608;SDS011;5860;52.018;8.536;2024-03-06T09:05:08;102.23;;;47.93;;
11608;SDS011;5860;52.018;8.536;2024-03-06T09:07:37;108.47;;;50.03;;
11608;SDS011;5860;52.018;8.536;2024-03-06T09:10:07;105.77;;;47.50;;
11608;SDS011;5860;52.018;8.536;2024-03-06T09:12:36;95.03;;;46.97;;
11608;SDS011;5860;52.018;8.536;2024-03-06T09:15:03;93.80;;;47.50;;
11608;SDS011;5860;52.018;8.536;2024-03-06T09:17:31;94.63;;;47.13;;
11608;SDS011;5860;52.018;8.536;2024-03-06T09:19:58;101.73;;;47.93;;
11608;SDS011;5860;52.018;8.536;2024-03-06T09:22:38;99.00;;;47.00;;
11608;SDS011;5860;52.018;8.536;2024-03-06T09:25:06;90.20;;;45.30;;
11608;SDS011;5860;52.018;8.536;2024-03-06T09:27:34;93.30;;;47.40;;
11608;SDS011;5860;52.018;8.536;2024-03-06T09:30:01;100.20;;;47.33;;
11608;SDS011;5860;52.018;8.536;2024-03-06T09:32:32;88.33;;;46.73;;
11608;SDS011;5860;52.018;8.536;2024-03-06T09:34:59;92.00;;;47.57;;
11608;SDS011;5860;52.018;8.536;2024-03-06T09:37:26;105.07;;;48.23;;
11608;SDS011;5860;52.018;8.536;2024-03-06T09:39:54;91.67;;;46.73;;
11608;SDS011;5860;52.018;8.536;2024-03-06T09:42:22;90.00;;;44.57;;
11608;SDS011;5860;52.018;8.536;2024-03-06T09:44:50;85.77;;;45.73;;
11608;SDS011;5860;52.018;8.536;2024-03-06T09:47:19;81.43;;;45.37;;
11608;SDS011;5860;52.018;8.536;2024-03-06T09:49:51;85.53;;;43.10;;
11608;SDS011;5860;52.018;8.536;2024-03-06T09:52:21;83.30;;;42.80;;
11608;SDS011;5860;52.018;8.536;2024-03-06T09:54:54;82.07;;;43.67;;
11608;SDS011;5860;52.018;8.536;2024-03-06T09:57:22;84.43;;;44.40;;
11608;SDS011;5860;52.018;8.536;2024-03-06T09:59:49;79.00;;;43.10;;
11608;SDS011;5860;52.018;8.536;2024-03-06T10:05:34;79.23;;;42.97;;
11608;SDS011;5860;52.018;8.536;2024-03-06T10:08:01;83.37;;;42.77;;
11608;SDS011;5860;52.018;8.536;2024-03-06T10:10:30;83.80;;;44.00;;
11608;SDS011;5860;52.018;8.536;2024-03-06T10:12:57;79.40;;;42.40;;
11608;SDS011;5860;52.018;8.536;2024-03-06T10:15:29;79.90;;;44.73;;
11608;SDS011;5860;52.018;8.536;2024-03-06T10:18:14;75.43;;;43.13;;
11608;SDS011;5860;52.018;8.536;2024-03-06T10:20:44;78.23;;;42.03;;
11608;SDS011;5860;52.018;8.536;2024-03-06T10:23:12;82.40;;;42.97;;
11608;SDS011;5860;52.018;8.536;2024-03-06T10:25:39;84.63;;;43.43;;
11608;SDS011;5860;52.018;8.536;2024-03-06T10:28:07;82.40;;;41.77;;
11608;SDS011;5860;52.018;8.536;2024-03-06T10:30:35;84.40;;;44.40;;
11608;SDS011;5860;52.018;8.536;2024-03-06T10:33:11;91.57;;;43.80;;
11608;SDS011;5860;52.018;8.536;2024-03-06T10:35:43;88.63;;;43.83;;
11608;SDS011;5860;52.018;8.536;2024-03-06T10:38:12;75.30;;;41.90;;
11608;SDS011;5860;52.018;8.536;2024-03-06T10:40:42;84.00;;;41.63;;
11608;SDS011;5860;52.018;8.536;2024-03-06T10:43:10;81.43;;;42.40;;
11608;SDS011;5860;52.018;8.536;2024-03-06T10:45:47;69.43;;;38.90;;
11608;SDS011;5860;52.018;8.536;2024-03-06T10:48:16;74.93;;;39.53;;
11608;SDS011;5860;52.018;8.536;2024-03-06T10:50:45;71.13;;;38.53;;
11608;SDS011;5860;52.018;8.536;2024-03-06T10:53:14;69.30;;;38.50;;
11608;SDS011;5860;52.018;8.536;2024-03-06T10:55:49;74.00;;;39.47;;
11608;SDS011;5860;52.018;8.536;2024-03-06T10:58:17;78.87;;;39.80;;
11608;SDS011;5860;52.018;8.536;2024-03-06T11:00:46;74.80;;;39.53;;
11608;SDS011;5860;52.018;8.536;2024-03-06T11:03:14;76.57;;;40.23;;
11608;SDS011;5860;52.018;8.536;2024-03-06T11:05:42;85.17;;;41.67;;
11608;SDS011;5860;52.018;8.536;2024-03-06T11:08:11;74.90;;;40.73;;
11608;SDS011;5860;52.018;8.536;2024-03-06T11:10:41;76.30;;;39.90;;
11608;SDS011;5860;52.018;8.536;2024-03-06T11:13:30;91.33;;;43.40;;
11608;SDS011;5860;52.018;8.536;2024-03-06T11:15:59;83.87;;;42.60;;
11608;SDS011;5860;52.018;8.536;2024-03-06T11:20:59;79.77;;;41.33;;
11608;SDS011;5860;52.018;8.536;2024-03-06T11:26:40;85.63;;;41.33;;
11608;SDS011;5860;52.018;8.536;2024-03-06T11:29:09;84.93;;;41.93;;
11608;SDS011;5860;52.018;8.536;2024-03-06T11:31:36;86.80;;;43.03;;
11608;SDS011;5860;52.018;8.536;2024-03-06T11:34:03;78.93;;;41.97;;
11608;SDS011;5860;52.018;8.536;2024-03-06T11:36:31;79.47;;;41.70;;
11608;SDS011;5860;52.018;8.536;2024-03-06T11:39:04;77.07;;;42.93;;
11608;SDS011;5860;52.018;8.536;2024-03-06T11:44:12;86.23;;;43.77;;
11608;SDS011;5860;52.018;8.536;2024-03-06T11:46:44;78.63;;;40.93;;
11608;SDS011;5860;52.018;8.536;2024-03-06T11:51:45;82.80;;;42.73;;
11608;SDS011;5860;52.018;8.536;2024-03-06T11:54:12;73.23;;;41.67;;
11608;SDS011;5860;52.018;8.536;2024-03-06T11:56:40;81.67;;;42.57;;
11608;SDS011;5860;52.018;8.536;2024-03-06T11:59:07;79.43;;;41.47;;
11608;SDS011;5860;52.018;8.536;2024-03-06T12:01:40;86.37;;;41.87;;
11608;SDS011;5860;52.018;8.536;2024-03-06T12:04:07;67.87;;;39.53;;
11608;SDS011;5860;52.018;8.536;2024-03-06T12:06:34;77.87;;;39.77;;
11608;SDS011;5860;52.018;8.536;2024-03-06T12:09:01;69.90;;;38.77;;
11608;SDS011;5860;52.018;8.536;2024-03-06T12:11:29;79.00;;;39.63;;
11608;SDS011;5860;52.018;8.536;2024-03-06T12:13:57;67.47;;;37.97;;
11608;SDS011;5860;52.018;8.536;2024-03-06T12:16:24;67.83;;;36.33;;
11608;SDS011;5860;52.018;8.536;2024-03-06T12:18:54;69.80;;;37.17;;
11608;SDS011;5860;52.018;8.536;2024-03-06T12:21:33;60.30;;;34.97;;
11608;SDS011;5860;52.018;8.536;2024-03-06T12:24:08;71.47;;;36.90;;
11608;SDS011;5860;52.018;8.536;2024-03-06T12:26:36;62.50;;;35.87;;
11608;SDS011;5860;52.018;8.536;2024-03-06T12:29:07;61.73;;;35.10;;
11608;SDS011;5860;52.018;8.536;2024-03-06T12:31:35;60.87;;;34.83;;
11608;SDS011;5860;52.018;8.536;2024-03-06T12:34:04;62.03;;;34.27;;
11608;SDS011;5860;52.018;8.536;2024-03-06T12:36:32;59.43;;;34.07;;
11608;SDS011;5860;52.018;8.536;2024-03-06T12:39:02;53.60;;;33.27;;
11608;SDS011;5860;52.018;8.536;2024-03-06T12:41:30;54.80;;;33.07;;
11608;SDS011;5860;52.018;8.536;2024-03-06T12:43:57;52.37;;;30.60;;
11608;SDS011;5860;52.018;8.536;2024-03-06T12:46:23;48.83;;;29.53;;
11608;SDS011;5860;52.018;8.536;2024-03-06T12:48:53;44.40;;;28.93;;
11608;SDS011;5860;52.018;8.536;2024-03-06T12:51:19;49.67;;;30.20;;
11608;SDS011;5860;52.018;8.536;2024-03-06T12:53:46;49.10;;;30.27;;
11608;SDS011;5860;52.018;8.536;2024-03-06T12:56:15;52.70;;;30.43;;
11608;SDS011;5860;52.018;8.536;2024-03-06T12:58:42;53.80;;;31.57;;
11608;SDS011;5860;52.018;8.536;2024-03-06T13:01:09;54.57;;;32.70;;
11608;SDS011;5860;52.018;8.536;2024-03-06T13:03:37;48.57;;;30.80;;
11608;SDS011;5860;52.018;8.536;2024-03-06T13:06:04;46.37;;;29.70;;
11608;SDS011;5860;52.018;8.536;2024-03-06T13:08:32;56.57;;;32.57;;
11608;SDS011;5860;52.018;8.536;2024-03-06T13:10:59;54.07;;;31.90;;
11608;SDS011;5860;52.018;8.536;2024-03-06T13:13:26;52.40;;;31.97;;
11608;SDS011;5860;52.018;8.536;2024-03-06T13:15:55;51.07;;;31.03;;
11608;SDS011;5860;52.018;8.536;2024-03-06T13:18:22;56.47;;;30.53;;
11608;SDS011;5860;52.018;8.536;2024-03-06T13:20:50;41.33;;;25.90;;
11608;SDS011;5860;52.018;8.536;2024-03-06T13:23:16;46.50;;;28.07;;
11608;SDS011;5860;52.018;8.536;2024-03-06T13:25:44;48.17;;;29.27;;
11608;SDS011;5860;52.018;8.536;2024-03-06T13:28:12;44.60;;;28.97;;
11608;SDS011;5860;52.018;8.536;2024-03-06T13:30:39;45.13;;;28.20;;
11608;SDS011;5860;52.018;8.536;2024-03-06T13:33:06;50.77;;;30.57;;
11608;SDS011;5860;52.018;8.536;2024-03-06T13:35:34;48.63;;;29.33;;
11608;SDS011;5860;52.018;8.536;2024-03-06T13:38:01;48.27;;;29.83;;
11608;SDS011;5860;52.018;8.536;2024-03-06T13:40:30;46.23;;;29.20;;
11608;SDS011;5860;52.018;8.536;2024-03-06T13:42:56;45.17;;;29.07;;
11608;SDS011;5860;52.018;8.536;2024-03-06T13:45:24;53.27;;;29.97;;
11608;SDS011;5860;52.018;8.536;2024-03-06T13:47:51;48.30;;;28.13;;
11608;SDS011;5860;52.018;8.536;2024-03-06T13:50:18;54.47;;;30.90;;
11608;SDS011;5860;52.018;8.536;2024-03-06T13:52:45;50.50;;;30.23;;
11608;SDS011;5860;52.018;8.536;2024-03-06T13:55:12;55.07;;;30.67;;
11608;SDS011;5860;52.018;8.536;2024-03-06T13:57:39;45.33;;;27.67;;
11608;SDS011;5860;52.018;8.536;2024-03-06T14:00:07;48.17;;;30.70;;
11608;SDS011;5860;52.018;8.536;2024-03-06T14:02:39;44.27;;;29.70;;
11608;SDS011;5860;52.018;8.536;2024-03-06T14:05:07;54.53;;;31.53;;
11608;SDS011;5860;52.018;8.536;2024-03-06T14:07:34;50.57;;;30.70;;
11608;SDS011;5860;52.018;8.536;2024-03-06T14:10:01;51.63;;;32.13;;
11608;SDS011;5860;52.018;8.536;2024-03-06T14:12:31;52.33;;;30.50;;
11608;SDS011;5860;52.018;8.536;2024-03-06T14:14:58;50.97;;;30.27;;
11608;SDS011;5860;52.018;8.536;2024-03-06T14:17:26;50.93;;;31.00;;
11608;SDS011;5860;52.018;8.536;2024-03-06T14:19:53;52.80;;;30.27;;
11608;SDS011;5860;52.018;8.536;2024-03-06T14:22:19;49.40;;;30.47;;
11608;SDS011;5860;52.018;8.536;2024-03-06T14:24:47;51.37;;;30.60;;
11608;SDS011;5860;52.018;8.536;2024-03-06T14:27:13;46.77;;;29.07;;
11608;SDS011;5860;52.018;8.536;2024-03-06T14:29:42;52.57;;;31.30;;
11608;SDS011;5860;52.018;8.536;2024-03-06T14:32:10;51.97;;;31.00;;
11608;SDS011;5860;52.018;8.536;2024-03-06T14:34:37;48.07;;;30.97;;
11608;SDS011;5860;52.018;8.536;2024-03-06T14:37:03;52.20;;;29.37;;
11608;SDS011;5860;52.018;8.536;2024-03-06T14:39:31;46.03;;;28.23;;
11608;SDS011;5860;52.018;8.536;2024-03-06T14:41:57;50.73;;;29.63;;
11608;SDS011;5860;52.018;8.536;2024-03-06T14:44:25;48.40;;;29.50;;
11608;SDS011;5860;52.018;8.536;2024-03-06T14:46:52;48.30;;;28.83;;
11608;SDS011;5860;52.018;8.536;2024-03-06T14:49:19;47.30;;;29.80;;
11608;SDS011;5860;52.018;8.536;2024-03-06T14:51:46;47.07;;;28.70;;
11608;SDS011;5860;52.018;8.536;2024-03-06T14:54:14;47.97;;;28.13;;
11608;SDS011;5860;52.018;8.536;2024-03-06T14:56:41;45.20;;;28.20;;